sensor_id;sensor_type;location;lat;lon;timestamp;pressure;altitude;pressure_sealevel;temperature;humidity
21276;BME280;36472;52.170;20.884;2023-03-31T00:01:13;99300.09;;;11.46;100.00
21276;BME280;36472;52.170;20.884;2023-03-31T00:03:41;99296.63;;;11.46;100.00
21276;BME280;36472;52.170;20.884;2023-03-31T00:06:13;99289.41;;;11.38;100.00
21276;BME280;36472;52.170;20.884;2023-03-31T00:08:46;99289.28;;;11.39;100.00
21276;BME280;36472;52.170;20.884;2023-03-31T00:11:20;99292.72;;;11.40;100.00
21276;BME280;36472;52.170;20.884;2023-03-31T00:13:49;99294.13;;;11.44;100.00
21276;BME280;36472;52.170;20.884;2023-03-31T00:16:18;99286.22;;;11.44;100.00
21276;BME280;36472;52.170;20.884;2023-03-31T00:18:47;99299.00;;;11.49;100.00
21276;BME280;36472;52.170;20.884;2023-03-31T00:21:21;99292.34;;;11.54;100.00
21276;BME280;36472;52.170;20.884;2023-03-31T00:23:59;99299.97;;;11.57;100.00
21276;BME280;36472;52.170;20.884;2023-03-31T00:26:29;99305.81;;;11.51;100.00
21276;BME280;36472;52.170;20.884;2023-03-31T00:28:59;99306.50;;;11.53;99.87
21276;BME280;36472;52.170;20.884;2023-03-31T00:31:28;99307.06;;;11.57;100.00
21276;BME280;36472;52.170;20.884;2023-03-31T00:33:58;99306.94;;;11.58;100.00
21276;BME280;36472;52.170;20.884;2023-03-31T00:36:28;99303.75;;;11.65;99.44
21276;BME280;36472;52.170;20.884;2023-03-31T00:39:00;99300.56;;;11.61;99.12
21276;BME280;36472;52.170;20.884;2023-03-31T00:41:31;99300.03;;;11.67;98.76
21276;BME280;36472;52.170;20.884;2023-03-31T00:44:12;99295.03;;;11.64;98.41
21276;BME280;36472;52.170;20.884;2023-03-31T00:46:53;99289.88;;;11.63;98.59
21276;BME280;36472;52.170;20.884;2023-03-31T00:49:30;99291.97;;;11.59;98.41
21276;BME280;36472;52.170;20.884;2023-03-31T00:52:08;99291.00;;;11.60;97.94
21276;BME280;36472;52.170;20.884;2023-03-31T00:54:43;99293.47;;;11.52;97.86
21276;BME280;36472;52.170;20.884;2023-03-31T00:57:15;99293.06;;;11.56;97.47
21276;BME280;36472;52.170;20.884;2023-03-31T00:59:49;99286.69;;;11.59;97.22
21276;BME280;36472;52.170;20.884;2023-03-31T01:02:19;99295.53;;;11.58;96.94
21276;BME280;36472;52.170;20.884;2023-03-31T01:04:52;99293.50;;;11.62;96.38
21276;BME280;36472;52.170;20.884;2023-03-31T01:07:34;99297.09;;;11.60;95.70
21276;BME280;36472;52.170;20.884;2023-03-31T01:10:06;99289.19;;;11.60;95.24
21276;BME280;36472;52.170;20.884;2023-03-31T01:12:41;99295.41;;;11.59;95.03
21276;BME280;36472;52.170;20.884;2023-03-31T01:15:12;99284.47;;;11.54;94.91
21276;BME280;36472;52.170;20.884;2023-03-31T01:17:42;99298.91;;;11.60;94.90
21276;BME280;36472;52.170;20.884;2023-03-31T01:20:23;99294.28;;;11.52;94.93
21276;BME280;36472;52.170;20.884;2023-03-31T01:26:41;99292.78;;;11.50;94.58
21276;BME280;36472;52.170;20.884;2023-03-31T01:29:38;99284.75;;;11.61;94.03
21276;BME280;36472;52.170;20.884;2023-03-31T01:32:57;99282.13;;;11.51;93.87
21276;BME280;36472;52.170;20.884;2023-03-31T01:36:19;99281.41;;;11.49;93.80
21276;BME280;36472;52.170;20.884;2023-03-31T01:42:18;99281.41;;;11.49;94.09
21276;BME280;36472;52.170;20.884;2023-03-31T01:45:00;99286.78;;;11.48;94.03
21276;BME280;36472;52.170;20.884;2023-03-31T01:47:39;99289.59;;;11.46;93.35
21276;BME280;36472;52.170;20.884;2023-03-31T01:50:22;99283.91;;;11.51;93.57
21276;BME280;36472;52.170;20.884;2023-03-31T01:53:01;99289.84;;;11.53;92.93
21276;BME280;36472;52.170;20.884;2023-03-31T01:55:36;99281.41;;;11.49;93.02
21276;BME280;36472;52.170;20.884;2023-03-31T01:58:14;99282.91;;;11.42;93.07
21276;BME280;36472;52.170;20.884;2023-03-31T02:00:53;99293.28;;;11.44;93.31
21276;BME280;36472;52.170;20.884;2023-03-31T02:03:28;99292.91;;;11.48;93.46
21276;BME280;36472;52.170;20.884;2023-03-31T02:06:09;99294.41;;;11.51;92.92
21276;BME280;36472;52.170;20.884;2023-03-31T02:08:45;99300.22;;;11.45;93.15
21276;BME280;36472;52.170;20.884;2023-03-31T02:11:17;99294.84;;;11.46;92.70
21276;BME280;36472;52.170;20.884;2023-03-31T02:13:51;99287.91;;;11.45;92.71
21276;BME280;36472;52.170;20.884;2023-03-31T02:16:25;99295.94;;;11.44;92.79
21276;BME280;36472;52.170;20.884;2023-03-31T02:19:01;99289.72;;;11.45;92.73
21276;BME280;36472;52.170;20.884;2023-03-31T02:21:36;99295.09;;;11.43;92.61
21276;BME280;36472;52.170;20.884;2023-03-31T02:24:11;99305.50;;;11.45;92.64
21276;BME280;36472;52.170;20.884;2023-03-31T02:26:49;99300.34;;;11.43;92.25
21276;BME280;36472;52.170;20.884;2023-03-31T02:29:22;99300.94;;;11.47;92.03
21276;BME280;36472;52.170;20.884;2023-03-31T02:31:57;99299.50;;;11.42;92.14
21276;BME280;36472;52.170;20.884;2023-03-31T02:34:29;99303.78;;;11.34;92.08
21276;BME280;36472;52.170;20.884;2023-03-31T02:36:58;99294.41;;;11.41;91.74
21276;BME280;36472;52.170;20.884;2023-03-31T02:39:33;99292.72;;;11.40;91.73
21276;BME280;36472;52.170;20.884;2023-03-31T02:42:02;99302.69;;;11.36;91.72
21276;BME280;36472;52.170;20.884;2023-03-31T02:44:37;99292.47;;;11.43;91.66
21276;BME280;36472;52.170;20.884;2023-03-31T02:47:10;99293.56;;;11.40;91.64
21276;BME280;36472;52.170;20.884;2023-03-31T02:49:43;99284.44;;;11.45;90.76
21276;BME280;36472;52.170;20.884;2023-03-31T02:52:54;99286.09;;;11.36;90.84
21276;BME280;36472;52.170;20.884;2023-03-31T02:55:45;99300.19;;;11.35;91.08
21276;BME280;36472;52.170;20.884;2023-03-31T02:58:35;99304.63;;;11.34;91.66
21276;BME280;36472;52.170;20.884;2023-03-31T03:01:30;99292.84;;;11.38;91.28
21276;BME280;36472;52.170;20.884;2023-03-31T03:04:24;99304.50;;;11.36;91.02
21276;BME280;36472;52.170;20.884;2023-03-31T03:07:07;99302.25;;;11.31;91.17
21276;BME280;36472;52.170;20.884;2023-03-31T03:09:54;99304.63;;;11.34;90.99
21276;BME280;36472;52.170;20.884;2023-03-31T03:12:34;99310.56;;;11.36;91.30
21276;BME280;36472;52.170;20.884;2023-03-31T03:15:10;99317.03;;;11.32;91.34
21276;BME280;36472;52.170;20.884;2023-03-31T03:17:44;99308.78;;;11.37;91.06
21276;BME280;36472;52.170;20.884;2023-03-31T03:20:15;99312.19;;;11.28;91.51
21276;BME280;36472;52.170;20.884;2023-03-31T03:22:44;99324.13;;;11.32;90.83
21276;BME280;36472;52.170;20.884;2023-03-31T03:25:14;99323.94;;;11.23;91.10
21276;BME280;36472;52.170;20.884;2023-03-31T03:27:45;99325.41;;;11.16;91.63
21276;BME280;36472;52.170;20.884;2023-03-31T03:30:15;99328.06;;;11.16;91.53
21276;BME280;36472;52.170;20.884;2023-03-31T03:32:45;99322.91;;;11.15;91.38
21276;BME280;36472;52.170;20.884;2023-03-31T03:35:14;99324.16;;;11.11;91.68
21276;BME280;36472;52.170;20.884;2023-03-31T03:37:43;99325.66;;;11.13;91.44
21276;BME280;36472;52.170;20.884;2023-03-31T03:40:12;99324.84;;;11.13;91.37
21276;BME280;36472;52.170;20.884;2023-03-31T03:42:42;99324.66;;;11.04;91.61
21276;BME280;36472;52.170;20.884;2023-03-31T03:45:12;99332.91;;;11.00;91.58
21276;BME280;36472;52.170;20.884;2023-03-31T03:47:41;99328.06;;;10.95;91.66
21276;BME280;36472;52.170;20.884;2023-03-31T03:50:11;99331.78;;;10.93;91.43
21276;BME280;36472;52.170;20.884;2023-03-31T03:52:43;99326.59;;;10.81;92.06
21276;BME280;36472;52.170;20.884;2023-03-31T03:55:12;99326.84;;;10.78;92.28
21276;BME280;36472;52.170;20.884;2023-03-31T03:57:41;99325.16;;;10.77;92.24
21276;BME280;36472;52.170;20.884;2023-03-31T04:00:11;99332.22;;;10.77;92.16
21276;BME280;36472;52.170;20.884;2023-03-31T04:02:41;99331.31;;;10.66;92.09
21276;BME280;36472;52.170;20.884;2023-03-31T04:05:12;99326.06;;;10.66;92.19
21276;BME280;36472;52.170;20.884;2023-03-31T04:07:41;99326.44;;;10.62;92.21
21276;BME280;36472;52.170;20.884;2023-03-31T04:10:10;99324.22;;;10.57;92.05
21276;BME280;36472;52.170;20.884;2023-03-31T04:12:39;99328.75;;;10.55;92.18
21276;BME280;36472;52.170;20.884;2023-03-31T04:15:09;99324.59;;;10.53;92.29
21276;BME280;36472;52.170;20.884;2023-03-31T04:17:38;99328.03;;;10.53;92.22
21276;BME280;36472;52.170;20.884;2023-03-31T04:20:09;99333.41;;;10.52;92.07
21276;BME280;36472;52.170;20.884;2023-03-31T04:22:39;99332.91;;;10.58;91.57
21276;BME280;36472;52.170;20.884;2023-03-31T04:25:11;99327.47;;;10.50;91.74
21276;BME280;36472;52.170;20.884;2023-03-31T04:27:45;99329.59;;;10.56;91.67
21276;BME280;36472;52.170;20.884;2023-03-31T04:30:17;99333.16;;;10.55;91.42
21276;BME280;36472;52.170;20.884;2023-03-31T04:32:52;99337.47;;;10.56;91.57
21276;BME280;36472;52.170;20.884;2023-03-31T04:35:24;99328.84;;;10.54;91.79
21276;BME280;36472;52.170;20.884;2023-03-31T04:37:54;99323.47;;;10.55;91.86
21276;BME280;36472;52.170;20.884;2023-03-31T04:40:25;99326.84;;;10.57;91.67
21276;BME280;36472;52.170;20.884;2023-03-31T04:42:54;99315.09;;;10.61;91.92
21276;BME280;36472;52.170;20.884;2023-03-31T04:45:23;99323.31;;;10.68;91.99
21276;BME280;36472;52.170;20.884;2023-03-31T04:47:52;99321.97;;;10.74;91.85
21276;BME280;36472;52.170;20.884;2023-03-31T04:50:21;99326.72;;;10.80;91.69
21276;BME280;36472;52.170;20.884;2023-03-31T04:52:50;99324.66;;;10.83;91.70
21276;BME280;36472;52.170;20.884;2023-03-31T04:55:20;99327.88;;;10.87;91.72
21276;BME280;36472;52.170;20.884;2023-03-31T04:57:49;99327.75;;;10.89;91.91
21276;BME280;36472;52.170;20.884;2023-03-31T05:00:20;99312.44;;;10.94;91.98
21276;BME280;36472;52.170;20.884;2023-03-31T05:02:50;99317.44;;;10.97;91.80
21276;BME280;36472;52.170;20.884;2023-03-31T05:05:19;99307.22;;;11.03;91.44
21276;BME280;36472;52.170;20.884;2023-03-31T05:07:48;99308.75;;;11.06;91.30
21276;BME280;36472;52.170;20.884;2023-03-31T05:10:17;99317.09;;;11.11;91.53
21276;BME280;36472;52.170;20.884;2023-03-31T05:12:47;99317.78;;;11.13;91.38
21276;BME280;36472;52.170;20.884;2023-03-31T05:15:17;99306.44;;;11.13;91.23
21276;BME280;36472;52.170;20.884;2023-03-31T05:17:46;99309.78;;;11.15;91.36
21276;BME280;36472;52.170;20.884;2023-03-31T05:20:15;99303.94;;;11.11;91.38
21276;BME280;36472;52.170;20.884;2023-03-31T05:22:45;99304.38;;;11.16;91.33
21276;BME280;36472;52.170;20.884;2023-03-31T05:25:14;99301.63;;;11.18;91.53
21276;BME280;36472;52.170;20.884;2023-03-31T05:27:47;99301.94;;;11.25;91.20
21276;BME280;36472;52.170;20.884;2023-03-31T05:30:17;99301.56;;;11.29;90.82
21276;BME280;36472;52.170;20.884;2023-03-31T05:32:46;99301.94;;;11.25;90.99
21276;BME280;36472;52.170;20.884;2023-03-31T05:35:15;99301.56;;;11.29;90.59
21276;BME280;36472;52.170;20.884;2023-03-31T05:37:44;99300.44;;;11.32;90.48
21276;BME280;36472;52.170;20.884;2023-03-31T05:40:13;99288.97;;;11.33;90.92
21276;BME280;36472;52.170;20.884;2023-03-31T05:42:42;99290.34;;;11.37;90.89
21276;BME280;36472;52.170;20.884;2023-03-31T05:45:13;99290.91;;;11.40;90.89
21276;BME280;36472;52.170;20.884;2023-03-31T05:47:41;99288.56;;;11.37;90.69
21276;BME280;36472;52.170;20.884;2023-03-31T05:50:10;99292.59;;;11.41;90.70
21276;BME280;36472;52.170;20.884;2023-03-31T05:52:41;99287.22;;;11.43;90.88
21276;BME280;36472;52.170;20.884;2023-03-31T05:55:10;99282.91;;;11.42;90.31
21276;BME280;36472;52.170;20.884;2023-03-31T05:57:39;99284.88;;;11.50;90.45
21276;BME280;36472;52.170;20.884;2023-03-31T06:00:12;99283.06;;;11.50;90.52
21276;BME280;36472;52.170;20.884;2023-03-31T06:02:41;99286.44;;;11.62;90.37
21276;BME280;36472;52.170;20.884;2023-03-31T06:05:10;99278.97;;;11.67;89.78
21276;BME280;36472;52.170;20.884;2023-03-31T06:07:39;99276.50;;;11.75;89.55
21276;BME280;36472;52.170;20.884;2023-03-31T06:10:09;99279.84;;;11.87;88.61
21276;BME280;36472;52.170;20.884;2023-03-31T06:12:38;99279.06;;;11.96;88.42
21276;BME280;36472;52.170;20.884;2023-03-31T06:15:07;99275.59;;;12.06;88.37
21276;BME280;36472;52.170;20.884;2023-03-31T06:17:38;99278.81;;;12.09;87.61
21276;BME280;36472;52.170;20.884;2023-03-31T06:20:08;99273.94;;;12.24;87.01
21276;BME280;36472;52.170;20.884;2023-03-31T06:22:53;99278.41;;;12.24;87.03
21276;BME280;36472;52.170;20.884;2023-03-31T06:25:22;99278.25;;;12.25;86.60
21276;BME280;36472;52.170;20.884;2023-03-31T06:27:51;99281.72;;;12.35;86.14
21276;BME280;36472;52.170;20.884;2023-03-31T06:30:20;99291.13;;;12.38;85.11
21276;BME280;36472;52.170;20.884;2023-03-31T06:32:50;99279.63;;;12.29;85.22
21276;BME280;36472;52.170;20.884;2023-03-31T06:35:19;99288.63;;;12.37;85.09
21276;BME280;36472;52.170;20.884;2023-03-31T06:37:48;99283.78;;;12.42;84.51
21276;BME280;36472;52.170;20.884;2023-03-31T06:40:17;99275.78;;;12.33;84.63
21276;BME280;36472;52.170;20.884;2023-03-31T06:42:47;99276.19;;;12.39;84.94
21276;BME280;36472;52.170;20.884;2023-03-31T06:45:16;99279.78;;;12.47;84.83
21276;BME280;36472;52.170;20.884;2023-03-31T06:47:45;99268.84;;;12.52;84.46
21276;BME280;36472;52.170;20.884;2023-03-31T06:50:16;99270.75;;;12.60;83.82
21276;BME280;36472;52.170;20.884;2023-03-31T06:52:45;99276.56;;;12.63;83.30
21276;BME280;36472;52.170;20.884;2023-03-31T06:55:14;99279.06;;;12.65;83.18
21276;BME280;36472;52.170;20.884;2023-03-31T06:57:43;99280.31;;;12.70;83.50
21276;BME280;36472;52.170;20.884;2023-03-31T07:00:14;99282.94;;;12.70;83.08
21276;BME280;36472;52.170;20.884;2023-03-31T07:02:43;99274.75;;;12.83;82.88
21276;BME280;36472;52.170;20.884;2023-03-31T07:05:12;99274.59;;;12.85;81.92
21276;BME280;36472;52.170;20.884;2023-03-31T07:07:42;99279.03;;;12.84;81.87
21276;BME280;36472;52.170;20.884;2023-03-31T07:10:13;99280.97;;;12.92;81.42
21276;BME280;36472;52.170;20.884;2023-03-31T07:12:42;99280.88;;;13.21;80.95
21276;BME280;36472;52.170;20.884;2023-03-31T07:15:11;99276.50;;;13.50;80.07
21276;BME280;36472;52.170;20.884;2023-03-31T07:17:40;99274.53;;;13.79;78.03
21276;BME280;36472;52.170;20.884;2023-03-31T07:20:10;99288.88;;;13.95;76.14
21276;BME280;36472;52.170;20.884;2023-03-31T07:22:44;99281.94;;;13.94;76.52
21276;BME280;36472;52.170;20.884;2023-03-31T07:25:16;99278.94;;;13.89;75.95
21276;BME280;36472;52.170;20.884;2023-03-31T07:27:45;99273.16;;;13.75;76.25
21276;BME280;36472;52.170;20.884;2023-03-31T07:30:17;99267.53;;;13.60;76.06
21276;BME280;36472;52.170;20.884;2023-03-31T07:32:48;99267.00;;;13.57;76.33
21276;BME280;36472;52.170;20.884;2023-03-31T07:35:19;99264.25;;;13.49;75.64
21276;BME280;36472;52.170;20.884;2023-03-31T07:37:50;99273.25;;;13.56;76.88
21276;BME280;36472;52.170;20.884;2023-03-31T07:40:24;99273.22;;;13.65;76.63
21276;BME280;36472;52.170;20.884;2023-03-31T07:42:54;99272.78;;;13.70;76.02
21276;BME280;36472;52.170;20.884;2023-03-31T07:45:25;99268.19;;;13.72;75.21
21276;BME280;36472;52.170;20.884;2023-03-31T07:47:54;99271.09;;;13.69;74.66
21276;BME280;36472;52.170;20.884;2023-03-31T07:50:24;99269.59;;;13.67;74.59
21276;BME280;36472;52.170;20.884;2023-03-31T07:52:57;99258.28;;;13.56;74.92
21276;BME280;36472;52.170;20.884;2023-03-31T07:55:25;99266.88;;;13.58;74.84
21276;BME280;36472;52.170;20.884;2023-03-31T07:57:54;99260.72;;;13.58;74.44
21276;BME280;36472;52.170;20.884;2023-03-31T08:00:24;99264.91;;;13.60;75.56
21276;BME280;36472;52.170;20.884;2023-03-31T08:02:53;99259.78;;;13.59;77.19
21276;BME280;36472;52.170;20.884;2023-03-31T08:05:21;99250.19;;;13.58;76.44
21276;BME280;36472;52.170;20.884;2023-03-31T08:07:51;99248.00;;;13.53;76.92
21276;BME280;36472;52.170;20.884;2023-03-31T08:10:25;99241.28;;;13.59;77.39
21276;BME280;36472;52.170;20.884;2023-03-31T08:12:55;99243.75;;;13.70;75.15
21276;BME280;36472;52.170;20.884;2023-03-31T08:15:24;99248.13;;;13.79;75.18
21276;BME280;36472;52.170;20.884;2023-03-31T08:17:53;99240.72;;;13.83;76.11
21276;BME280;36472;52.170;20.884;2023-03-31T08:20:22;99240.56;;;13.84;74.87
21276;BME280;36472;52.170;20.884;2023-03-31T08:22:51;99244.59;;;13.89;74.16
21276;BME280;36472;52.170;20.884;2023-03-31T08:25:21;99249.94;;;13.97;72.61
21276;BME280;36472;52.170;20.884;2023-03-31T08:27:51;99235.19;;;14.04;72.75
21276;BME280;36472;52.170;20.884;2023-03-31T08:30:20;99227.38;;;14.20;71.87
21276;BME280;36472;52.170;20.884;2023-03-31T08:32:49;99226.09;;;14.25;71.96
21276;BME280;36472;52.170;20.884;2023-03-31T08:35:18;99228.63;;;14.52;71.34
21276;BME280;36472;52.170;20.884;2023-03-31T08:37:47;99222.03;;;14.74;70.21
21276;BME280;36472;52.170;20.884;2023-03-31T08:40:22;99222.63;;;14.94;69.73
21276;BME280;36472;52.170;20.884;2023-03-31T08:42:55;99212.34;;;15.18;69.56
21276;BME280;36472;52.170;20.884;2023-03-31T08:45:31;99207.97;;;15.43;68.96
21276;BME280;36472;52.170;20.884;2023-03-31T08:48:08;99207.81;;;15.44;67.58
21276;BME280;36472;52.170;20.884;2023-03-31T08:50:49;99200.91;;;15.68;68.12
21276;BME280;36472;52.170;20.884;2023-03-31T08:53:27;99200.81;;;15.78;66.78
21276;BME280;36472;52.170;20.884;2023-03-31T08:55:58;99196.50;;;15.85;65.24
21276;BME280;36472;52.170;20.884;2023-03-31T08:58:35;99192.56;;;15.97;66.27
21276;BME280;36472;52.170;20.884;2023-03-31T09:01:20;99197.84;;;16.14;65.47
21276;BME280;36472;52.170;20.884;2023-03-31T09:04:14;99203.00;;;16.40;64.50
21276;BME280;36472;52.170;20.884;2023-03-31T09:06:57;99196.19;;;16.54;64.97
21276;BME280;36472;52.170;20.884;2023-03-31T09:09:50;99184.25;;;16.58;63.20
21276;BME280;36472;52.170;20.884;2023-03-31T09:12:33;99196.69;;;16.57;62.27
21276;BME280;36472;52.170;20.884;2023-03-31T09:15:10;99187.91;;;16.40;61.76
21276;BME280;36472;52.170;20.884;2023-03-31T09:17:45;99192.72;;;16.29;62.12
21276;BME280;36472;52.170;20.884;2023-03-31T09:20:20;99186.13;;;16.16;63.41
21276;BME280;36472;52.170;20.884;2023-03-31T09:23:00;99183.28;;;16.26;62.78
21276;BME280;36472;52.170;20.884;2023-03-31T09:25:38;99182.28;;;16.19;63.19
21276;BME280;36472;52.170;20.884;2023-03-31T09:28:19;99178.94;;;16.41;63.88
21276;BME280;36472;52.170;20.884;2023-03-31T09:30:49;99183.44;;;16.33;62.91
21276;BME280;36472;52.170;20.884;2023-03-31T09:33:24;99187.25;;;16.38;62.31
21276;BME280;36472;52.170;20.884;2023-03-31T09:35:58;99180.94;;;16.39;62.35
21276;BME280;36472;52.170;20.884;2023-03-31T09:38:28;99180.13;;;16.55;62.37
21276;BME280;36472;52.170;20.884;2023-03-31T09:41:00;99173.94;;;16.79;62.22
21276;BME280;36472;52.170;20.884;2023-03-31T09:43:32;99174.03;;;17.02;61.13
21276;BME280;36472;52.170;20.884;2023-03-31T09:46:12;99177.25;;;17.29;60.12
21276;BME280;36472;52.170;20.884;2023-03-31T09:48:52;99179.09;;;17.29;60.26
21276;BME280;36472;52.170;20.884;2023-03-31T09:51:28;99173.84;;;17.44;59.59
21276;BME280;36472;52.170;20.884;2023-03-31T09:54:08;99173.19;;;17.42;58.15
21276;BME280;36472;52.170;20.884;2023-03-31T09:56:49;99174.44;;;17.31;57.46
21276;BME280;36472;52.170;20.884;2023-03-31T09:59:30;99162.84;;;17.24;58.17
21276;BME280;36472;52.170;20.884;2023-03-31T10:02:21;99161.47;;;17.36;58.45
21276;BME280;36472;52.170;20.884;2023-03-31T10:04:53;99161.31;;;17.61;58.67
21276;BME280;36472;52.170;20.884;2023-03-31T10:07:24;99164.50;;;17.79;58.20
21276;BME280;36472;52.170;20.884;2023-03-31T10:09:54;99155.09;;;18.00;56.05
21276;BME280;36472;52.170;20.884;2023-03-31T10:12:27;99152.06;;;18.03;56.32
21276;BME280;36472;52.170;20.884;2023-03-31T10:15:18;99154.16;;;17.84;55.66
21276;BME280;36472;52.170;20.884;2023-03-31T10:17:48;99143.25;;;17.56;55.90
21276;BME280;36472;52.170;20.884;2023-03-31T10:20:32;99135.25;;;17.33;56.75
21276;BME280;36472;52.170;20.884;2023-03-31T10:23:05;99133.28;;;17.27;57.86
21276;BME280;36472;52.170;20.884;2023-03-31T10:25:44;99122.00;;;17.25;59.03
21276;BME280;36472;52.170;20.884;2023-03-31T10:28:18;99122.34;;;17.22;58.28
21276;BME280;36472;52.170;20.884;2023-03-31T10:30:51;99123.38;;;17.20;58.36
21276;BME280;36472;52.170;20.884;2023-03-31T10:33:24;99123.53;;;17.19;58.86
21276;BME280;36472;52.170;20.884;2023-03-31T10:35:57;99121.16;;;17.32;57.38
21276;BME280;36472;52.170;20.884;2023-03-31T10:38:30;99108.47;;;17.43;56.90
21276;BME280;36472;52.170;20.884;2023-03-31T10:41:01;99126.78;;;17.61;57.33
21276;BME280;36472;52.170;20.884;2023-03-31T10:43:39;99114.25;;;17.69;55.77
21276;BME280;36472;52.170;20.884;2023-03-31T10:46:11;99117.28;;;17.66;55.77
21276;BME280;36472;52.170;20.884;2023-03-31T10:48:42;99114.03;;;17.79;56.54
21276;BME280;36472;52.170;20.884;2023-03-31T10:51:16;99119.31;;;17.87;54.55
21276;BME280;36472;52.170;20.884;2023-03-31T10:53:48;99116.56;;;18.34;54.65
21276;BME280;36472;52.170;20.884;2023-03-31T10:56:34;99111.53;;;18.68;51.99
21276;BME280;36472;52.170;20.884;2023-03-31T10:59:19;99102.53;;;18.99;50.82
21276;BME280;36472;52.170;20.884;2023-03-31T11:02:28;99104.28;;;19.07;49.95
21276;BME280;36472;52.170;20.884;2023-03-31T11:05:13;99090.41;;;19.12;50.40
21276;BME280;36472;52.170;20.884;2023-03-31T11:07:58;99090.44;;;18.97;51.46
21276;BME280;36472;52.170;20.884;2023-03-31T11:10:50;99076.94;;;18.98;49.78
21276;BME280;36472;52.170;20.884;2023-03-31T11:13:35;99085.84;;;18.91;50.42
21276;BME280;36472;52.170;20.884;2023-03-31T11:16:17;99070.31;;;18.94;50.98
21276;BME280;36472;52.170;20.884;2023-03-31T11:19:14;99069.75;;;19.57;50.95
21276;BME280;36472;52.170;20.884;2023-03-31T11:21:58;99070.66;;;19.42;49.17
21276;BME280;36472;52.170;20.884;2023-03-31T11:24:59;99061.88;;;19.05;50.79
21276;BME280;36472;52.170;20.884;2023-03-31T11:27:57;99067.06;;;19.14;50.44
21276;BME280;36472;52.170;20.884;2023-03-31T11:30:35;99063.41;;;19.15;50.32
21276;BME280;36472;52.170;20.884;2023-03-31T11:33:39;99064.41;;;19.14;51.07
21276;BME280;36472;52.170;20.884;2023-03-31T11:36:38;99064.44;;;18.99;49.60
21276;BME280;36472;52.170;20.884;2023-03-31T11:39:35;99057.84;;;18.80;50.96
21276;BME280;36472;52.170;20.884;2023-03-31T11:42:14;99056.59;;;18.46;51.46
21276;BME280;36472;52.170;20.884;2023-03-31T11:44:51;99047.69;;;18.39;51.96
21276;BME280;36472;52.170;20.884;2023-03-31T11:47:25;99060.81;;;18.25;52.16
21276;BME280;36472;52.170;20.884;2023-03-31T11:50:02;99050.06;;;18.19;53.15
21276;BME280;36472;52.170;20.884;2023-03-31T11:52:38;99049.00;;;18.28;53.80
21276;BME280;36472;52.170;20.884;2023-03-31T11:55:16;99040.75;;;18.23;53.38
21276;BME280;36472;52.170;20.884;2023-03-31T11:57:52;99031.19;;;18.13;52.33
21276;BME280;36472;52.170;20.884;2023-03-31T12:00:29;99039.00;;;18.30;52.71
21276;BME280;36472;52.170;20.884;2023-03-31T12:03:08;99033.28;;;18.48;52.10
21276;BME280;36472;52.170;20.884;2023-03-31T12:05:45;99027.41;;;18.53;51.48
21276;BME280;36472;52.170;20.884;2023-03-31T12:08:25;99020.88;;;18.70;50.95
21276;BME280;36472;52.170;20.884;2023-03-31T12:11:04;99010.13;;;18.93;49.63
21276;BME280;36472;52.170;20.884;2023-03-31T12:13:44;99014.06;;;18.97;49.09
21276;BME280;36472;52.170;20.884;2023-03-31T12:16:21;99012.34;;;18.90;50.08
21276;BME280;36472;52.170;20.884;2023-03-31T12:19:01;99002.47;;;19.05;50.85
21276;BME280;36472;52.170;20.884;2023-03-31T12:21:36;99005.59;;;19.30;49.04
21276;BME280;36472;52.170;20.884;2023-03-31T12:24:11;99003.75;;;19.09;49.40
21276;BME280;36472;52.170;20.884;2023-03-31T12:26:53;98997.19;;;18.90;49.27
21276;BME280;36472;52.170;20.884;2023-03-31T12:29:30;99002.31;;;18.92;48.96
21276;BME280;36472;52.170;20.884;2023-03-31T12:32:06;98986.53;;;18.90;48.14
21276;BME280;36472;52.170;20.884;2023-03-31T12:34:46;98986.72;;;18.88;50.27
21276;BME280;36472;52.170;20.884;2023-03-31T12:37:57;98985.28;;;19.08;50.17
21276;BME280;36472;52.170;20.884;2023-03-31T12:40:45;98978.69;;;19.03;49.48
21276;BME280;36472;52.170;20.884;2023-03-31T12:43:41;98981.88;;;19.14;47.93
21276;BME280;36472;52.170;20.884;2023-03-31T12:46:42;98973.50;;;19.17;48.37
21276;BME280;36472;52.170;20.884;2023-03-31T12:49:34;98966.09;;;19.12;48.08
21276;BME280;36472;52.170;20.884;2023-03-31T12:52:16;98973.94;;;19.20;48.40
21276;BME280;36472;52.170;20.884;2023-03-31T12:55:26;98957.72;;;18.94;47.22
21276;BME280;36472;52.170;20.884;2023-03-31T12:58:43;98953.34;;;18.71;48.90
21276;BME280;36472;52.170;20.884;2023-03-31T13:01:18;98953.00;;;18.59;48.50
21276;BME280;36472;52.170;20.884;2023-03-31T13:04:07;98951.50;;;18.50;49.49
21276;BME280;36472;52.170;20.884;2023-03-31T13:06:58;98945.09;;;18.29;48.68
21276;BME280;36472;52.170;20.884;2023-03-31T13:09:46;98941.56;;;18.07;50.14
21276;BME280;36472;52.170;20.884;2023-03-31T13:12:22;98941.38;;;17.94;50.00
21276;BME280;36472;52.170;20.884;2023-03-31T13:14:55;98940.94;;;17.67;53.26
21276;BME280;36472;52.170;20.884;2023-03-31T13:17:58;98939.41;;;17.20;57.78
21276;BME280;36472;52.170;20.884;2023-03-31T13:20:34;98941.28;;;16.80;63.25
21276;BME280;36472;52.170;20.884;2023-03-31T13:23:15;98935.69;;;16.52;69.07
21276;BME280;36472;52.170;20.884;2023-03-31T13:25:49;98936.78;;;16.26;71.01
21276;BME280;36472;52.170;20.884;2023-03-31T13:28:42;98926.25;;;16.10;73.10
21276;BME280;36472;52.170;20.884;2023-03-31T13:31:14;98921.31;;;15.98;72.81
21276;BME280;36472;52.170;20.884;2023-03-31T13:33:51;98918.66;;;15.98;68.66
21276;BME280;36472;52.170;20.884;2023-03-31T13:36:57;98918.94;;;16.12;66.95
21276;BME280;36472;52.170;20.884;2023-03-31T13:39:55;98918.91;;;16.28;63.60
21276;BME280;36472;52.170;20.884;2023-03-31T13:42:56;98915.97;;;16.46;63.78